createdAt,value
2023-01-13T00:00:21.969Z,98203.66
2023-01-13T00:02:51.719Z,98205.81
2023-01-13T00:05:18.702Z,98199.03
2023-01-13T00:08:38.147Z,98198.44
2023-01-13T00:11:11.764Z,98194.84
2023-01-13T00:13:40.815Z,98195.41
2023-01-13T00:16:13.300Z,98195.06
2023-01-13T00:18:41.566Z,98191.44
2023-01-13T00:21:22.983Z,98189.88
2023-01-13T00:23:52.181Z,98188.25
2023-01-13T00:26:35.693Z,98192.16
2023-01-13T00:31:32.977Z,98188.53
2023-01-13T00:34:12.976Z,98182.97
2023-01-13T00:37:32.333Z,98177.25
2023-01-13T00:45:53.727Z,98169.56
2023-01-13T01:28:39.923Z,98145.28
2023-01-13T01:35:08.821Z,98153.06
2023-01-13T01:45:47.970Z,98128.53
2023-01-13T01:57:17.617Z,98110.78
2023-01-13T02:04:19.625Z,98106.47
2023-01-13T02:08:00.761Z,98099.22
2023-01-13T02:25:29.717Z,98086.22
2023-01-13T03:08:57.279Z,98055.41
2023-01-13T03:16:56.769Z,98050.91
2023-01-13T03:32:31.576Z,98043.78
2023-01-13T03:35:34.312Z,98042.34
2023-01-13T03:41:42.773Z,98041.47
2023-01-13T04:01:34.908Z,98041.31
2023-01-13T04:05:21.655Z,98037.00
2023-01-13T04:13:34.808Z,98032.81
2023-01-13T04:16:12.206Z,98036.09
2023-01-13T04:18:52.139Z,98032.38
2023-01-13T04:32:59.493Z,98047.28
2023-01-13T06:01:32.846Z,98025.41
2023-01-13T06:04:06.272Z,98020.78
2023-01-13T06:06:46.449Z,98024.97
2023-01-13T06:09:32.364Z,98014.44
2023-01-13T06:14:46.307Z,98016.81
2023-01-13T06:17:42.162Z,98019.88
2023-01-13T06:20:28.117Z,98008.97
2023-01-13T06:26:09.446Z,98007.13
2023-01-13T06:28:45.133Z,98010.72
2023-01-13T06:31:22.714Z,98010.00
2023-01-13T06:36:45.004Z,98019.59
2023-01-13T06:39:17.193Z,98023.22
2023-01-13T06:42:12.915Z,98019.81
2023-01-13T06:44:50.645Z,98024.22
2023-01-13T06:47:30.195Z,98021.97
2023-01-13T06:52:33.102Z,98020.41
2023-01-13T06:57:34.986Z,98024.59
2023-01-13T07:00:04.658Z,98015.75
2023-01-13T07:02:39.799Z,98020.31
2023-01-13T07:05:24.306Z,98026.09
2023-01-13T07:07:52.991Z,98018.50
2023-01-13T07:10:26.932Z,98021.09
2023-01-13T07:13:12.055Z,98023.94
2023-01-13T07:15:39.233Z,98022.13
2023-01-13T07:18:11.780Z,98022.91
2023-01-13T07:20:56.185Z,98023.34
2023-01-13T07:23:33.027Z,98021.75
2023-01-13T07:26:09.733Z,98027.97
2023-01-13T07:28:50.638Z,98018.34
2023-01-13T07:31:23.675Z,98012.38
2023-01-13T07:34:00.337Z,98015.75
2023-01-13T07:36:30.732Z,98015.56
2023-01-13T07:39:04.391Z,98017.81
2023-01-13T07:41:53.590Z,98022.63
2023-01-13T07:44:29.059Z,98013.59
2023-01-13T07:49:55.976Z,98013.94
2023-01-13T07:52:29.453Z,98006.59
2023-01-13T07:54:59.462Z,98005.59
2023-01-13T07:57:39.276Z,98003.78
2023-01-13T08:00:13.049Z,98004.94
2023-01-13T08:02:52.908Z,98001.53
2023-01-13T08:05:20.184Z,98010.50
2023-01-13T08:07:48.969Z,98005.31
2023-01-13T08:10:22.292Z,98008.69
2023-01-13T08:15:51.486Z,98014.69
2023-01-13T08:18:22.125Z,98016.03
2023-01-13T08:20:49.213Z,98017.06
2023-01-13T08:23:16.758Z,98019.22
2023-01-13T08:25:54.407Z,98013.00
2023-01-13T08:28:25.849Z,98017.41
2023-01-13T08:30:59.248Z,98010.66
2023-01-13T08:33:38.306Z,98013.25
2023-01-13T08:36:15.464Z,98023.06
2023-01-13T08:41:52.723Z,98026.09
2023-01-13T08:44:34.263Z,98030.38
2023-01-13T08:47:06.951Z,98045.97
2023-01-13T08:49:42.722Z,98049.56
2023-01-13T08:52:15.063Z,98041.03
2023-01-13T08:54:44.901Z,98044.13
2023-01-13T08:57:23.352Z,98047.22
2023-01-13T08:59:56.089Z,98057.72
2023-01-13T09:02:35.593Z,98063.19
2023-01-13T09:05:10.736Z,98052.28
2023-01-13T09:16:26.750Z,98083.03
2023-01-13T10:07:18.121Z,98161.91
2023-01-13T10:09:51.239Z,98149.16
2023-01-13T10:12:41.422Z,98146.50
2023-01-13T10:15:15.827Z,98142.16
2023-01-13T10:17:45.321Z,98144.94
2023-01-13T10:20:36.307Z,98139.91
2023-01-13T10:23:11.297Z,98138.13
2023-01-13T10:26:15.504Z,98149.84
2023-01-13T10:28:42.080Z,98149.47
2023-01-13T10:31:12.504Z,98162.41
2023-01-13T10:33:47.204Z,98176.56
2023-01-13T10:36:29.276Z,98178.00
2023-01-13T10:39:09.430Z,98169.41
2023-01-13T10:41:36.221Z,98172.97
2023-01-13T10:44:17.537Z,98173.97
2023-01-13T10:49:36.146Z,98171.16
2023-01-13T10:52:04.455Z,98155.16
2023-01-13T10:54:31.473Z,98156.94
2023-01-13T10:57:22.493Z,98163.31
2023-01-13T10:59:49.321Z,98162.72
2023-01-13T11:02:36.723Z,98161.94
2023-01-13T11:05:21.022Z,98153.69
2023-01-13T11:10:31.326Z,98151.41
2023-01-13T11:13:23.193Z,98152.00
2023-01-13T11:15:56.189Z,98156.75
2023-01-13T11:19:14.108Z,98155.75
2023-01-13T11:21:46.799Z,98144.53
2023-01-13T11:24:37.693Z,98139.44
2023-01-13T11:27:07.427Z,98139.38
2023-01-13T11:32:34.440Z,98138.75
2023-01-13T11:37:52.534Z,98127.50
2023-01-13T11:40:34.208Z,98133.72
2023-01-13T11:43:45.443Z,98130.53
2023-01-13T11:46:17.597Z,98133.66
2023-01-13T11:58:09.321Z,98153.72
2023-01-13T12:00:57.923Z,98161.19
2023-01-13T12:03:40.155Z,98167.47
2023-01-13T12:06:27.675Z,98174.41
2023-01-13T12:09:44.782Z,98159.34
2023-01-13T12:12:37.630Z,98165.25
2023-01-13T12:15:15.203Z,98156.94
2023-01-13T12:18:19.692Z,98166.81
2023-01-13T12:20:55.545Z,98175.00
2023-01-13T12:23:36.465Z,98161.16
2023-01-13T12:27:12.501Z,98166.09
2023-01-13T12:29:42.678Z,98167.50
2023-01-13T12:32:17.939Z,98173.28
2023-01-13T12:35:18.122Z,98187.47
2023-01-13T12:38:06.998Z,98176.88
2023-01-13T12:40:42.208Z,98168.91
2023-01-13T12:43:38.179Z,98159.94
2023-01-13T12:50:45.498Z,98166.28
2023-01-13T12:53:47.487Z,98158.91
2023-01-13T12:56:38.734Z,98159.84
2023-01-13T12:59:28.394Z,98160.47
2023-01-13T13:02:35.464Z,98174.69
2023-01-13T13:05:15.376Z,98191.53
2023-01-13T13:07:46.504Z,98172.81
2023-01-13T13:10:56.140Z,98164.38
2023-01-13T13:13:43.521Z,98167.19
2023-01-13T13:16:29.456Z,98171.19
2023-01-13T13:19:17.704Z,98178.00
2023-01-13T13:22:25.987Z,98171.84
2023-01-13T13:24:52.405Z,98174.88
2023-01-13T13:27:31.933Z,98171.88
2023-01-13T13:30:14.293Z,98162.47
2023-01-13T13:33:04.560Z,98161.06
2023-01-13T13:36:08.469Z,98167.63
2023-01-13T13:39:22.087Z,98167.59
2023-01-13T13:42:38.153Z,98196.09
2023-01-13T13:45:40.059Z,98193.50
2023-01-13T13:51:46.728Z,98194.47
2023-01-13T13:54:19.867Z,98210.22
2023-01-13T13:56:50.213Z,98208.63
2023-01-13T13:59:30.778Z,98205.63
2023-01-13T14:03:05.071Z,98204.88
2023-01-13T14:06:34.539Z,98220.06
2023-01-13T14:09:35.551Z,98218.47
2023-01-13T14:12:47.635Z,98218.09
2023-01-13T14:15:56.327Z,98232.06
2023-01-13T14:18:23.295Z,98225.28
2023-01-13T14:21:28.810Z,98230.66
2023-01-13T14:24:10.644Z,98226.03
2023-01-13T14:26:37.175Z,98230.81
2023-01-13T14:29:06.346Z,98230.00
2023-01-13T14:31:43.399Z,98230.38
2023-01-13T14:34:32.911Z,98218.59
2023-01-13T14:37:23.541Z,98212.84
2023-01-13T14:40:29.824Z,98229.00
2023-01-13T14:46:10.062Z,98240.00
2023-01-13T14:51:45.087Z,98249.81
2023-01-13T14:55:06.855Z,98252.81
2023-01-13T15:00:51.956Z,98268.75
2023-01-13T15:03:34.352Z,98272.56
2023-01-13T15:06:29.411Z,98262.00
2023-01-13T15:11:42.660Z,98265.19
2023-01-13T15:14:41.460Z,98259.97
2023-01-13T15:17:26.371Z,98271.75
2023-01-13T15:19:56.421Z,98261.56
2023-01-13T15:28:21.412Z,98303.59
2023-01-13T15:36:44.954Z,98320.72
2023-01-13T15:39:26.639Z,98320.50
2023-01-13T15:42:30.474Z,98325.66
2023-01-13T15:48:54.729Z,98343.50
2023-01-13T15:51:58.836Z,98354.34
2023-01-13T16:03:33.877Z,98390.88
2023-01-13T16:06:54.563Z,98394.88
2023-01-13T16:10:29.963Z,98402.41
2023-01-13T16:13:00.159Z,98411.38
2023-01-13T16:16:33.067Z,98417.50
2023-01-13T16:19:26.554Z,98425.59
2023-01-13T16:21:59.693Z,98435.72
2023-01-13T16:24:32.221Z,98444.88
2023-01-13T16:27:34.014Z,98455.25
2023-01-13T16:32:35.537Z,98456.38
2023-01-13T16:35:12.506Z,98460.78
2023-01-13T16:38:01.684Z,98469.31
2023-01-13T16:40:37.127Z,98463.88
2023-01-13T16:49:41.858Z,98474.16
2023-01-13T17:37:49.788Z,98514.84
2023-01-13T17:41:58.510Z,98520.19
2023-01-13T18:11:59.937Z,98530.97
2023-01-13T18:50:20.582Z,98586.69
2023-01-13T19:02:15.461Z,98608.56
2023-01-13T19:05:53.571Z,98614.53
2023-01-13T19:16:08.340Z,98616.69
2023-01-13T19:18:52.697Z,98613.81
2023-01-13T19:25:37.122Z,98619.03
2023-01-13T19:37:54.989Z,98641.06
2023-01-13T19:43:39.206Z,98649.63
2023-01-13T19:49:54.513Z,98650.63
2023-01-13T19:52:31.399Z,98652.97
2023-01-13T19:59:20.611Z,98658.13
2023-01-13T20:05:25.153Z,98658.13
2023-01-13T20:14:31.563Z,98658.53
2023-01-13T20:17:14.013Z,98652.72
2023-01-13T20:20:01.047Z,98658.72
2023-01-13T20:23:17.665Z,98669.06
2023-01-13T20:26:03.097Z,98683.00
2023-01-13T20:28:49.991Z,98684.59
2023-01-13T20:31:23.586Z,98681.09
2023-01-13T20:34:49.344Z,98689.06
2023-01-13T20:37:31.339Z,98698.59
2023-01-13T20:43:44.539Z,98694.78
2023-01-13T20:46:28.983Z,98693.63
2023-01-13T20:49:38.492Z,98709.03
2023-01-13T20:52:15.158Z,98706.97
2023-01-13T21:01:17.087Z,98714.97
2023-01-13T21:04:05.319Z,98716.56
2023-01-13T21:07:07.365Z,98722.72
2023-01-13T21:09:39.582Z,98711.00
2023-01-13T21:12:43.457Z,98723.69
2023-01-13T21:15:26.124Z,98728.13
2023-01-13T21:22:14.648Z,98740.66
2023-01-13T21:25:07.720Z,98732.22
2023-01-13T21:30:33.085Z,98751.22
2023-01-13T21:33:10.587Z,98744.25
2023-01-13T21:38:39.624Z,98747.31
2023-01-13T21:41:40.321Z,98749.91
2023-01-13T21:44:57.081Z,98750.16
2023-01-13T21:50:40.837Z,98750.34
2023-01-13T21:53:36.417Z,98756.75
2023-01-13T21:56:26.739Z,98764.28
2023-01-13T21:59:02.360Z,98763.72
2023-01-13T22:04:27.796Z,98774.66
2023-01-13T22:10:15.362Z,98760.69
2023-01-13T22:12:53.958Z,98770.38
2023-01-13T22:18:24.953Z,98774.88
2023-01-13T22:21:15.854Z,98790.78
2023-01-13T22:24:09.855Z,98786.16
2023-01-13T22:26:54.432Z,98787.13
2023-01-13T22:29:55.611Z,98783.84
2023-01-13T22:32:32.105Z,98787.91
2023-01-13T22:35:22.126Z,98782.66
2023-01-13T22:40:42.026Z,98792.84
2023-01-13T22:43:23.994Z,98804.19
2023-01-13T22:46:23.035Z,98812.22
2023-01-13T22:54:17.227Z,98823.09
2023-01-13T22:56:49.386Z,98818.88
2023-01-13T22:59:29.513Z,98820.41
2023-01-13T23:02:08.243Z,98813.72
2023-01-13T23:04:48.007Z,98821.47
2023-01-13T23:07:41.685Z,98834.41
2023-01-13T23:10:22.783Z,98843.91
2023-01-13T23:12:53.932Z,98841.75
2023-01-13T23:15:31.572Z,98840.03
2023-01-13T23:18:13.038Z,98841.13
2023-01-13T23:20:56.919Z,98853.63
2023-01-13T23:23:31.064Z,98850.41
2023-01-13T23:26:04.560Z,98852.56
2023-01-13T23:28:50.479Z,98847.91
2023-01-13T23:31:25.741Z,98862.81
2023-01-13T23:36:34.885Z,98857.25
2023-01-13T23:39:14.833Z,98862.28
2023-01-13T23:41:55.092Z,98858.97
2023-01-13T23:44:31.053Z,98855.38
2023-01-13T23:47:16.145Z,98858.69
2023-01-13T23:49:49.985Z,98849.78
2023-01-13T23:52:24.180Z,98858.69
2023-01-13T23:57:41.397Z,98845.25
